Silver Plume, Colorado
Current Conditions -  °F | °C
As of 2:35 PM on Wednesday 26 Nov 2014 (Local Time) from KCCU Reporting Station
Broken Clouds Broken Clouds  
Wind Chill: 13°   Ceiling: 900
Heat Index: 28°   Visibility: NA
Dew Point: 23°   Wind: 28mph
Humidity: 80%   Direction: 280°W
Pressure: 30.38"   Gusts: 38mph
Location:  39.7°N, 105.73°W
Report Text: KCCU 262135Z AUTO 28024G33KT BKN009 BKN014 BKN022 M02/M05 A3038 RMK AO2 PWINO
Loading
Personal Weather Stations






























Interactive Weather Map New forecast layout! Learn more

10-Day Weather Forecast

Advertisements
Track Severe Weather on mobile